Time;durP1;ratioP1;P1;durP2;ratioP2;P2;SDS_P1;SDS_P2;PMS_P1;PMS_P2;Temp;Humidity;BMP_temperature;BMP_pressure;BME280_temperature;BME280_humidity;BME280_pressure;Samples;Min_cycle;Max_cycle;Signal;HPM_P1;HPM_P2
2022/03/06 00:00:25;;;;;;;58.73;26.48;;;;;;;-3.75;73.93;97934.67;1663610;85;21414;-75
2022/03/06 00:02:54;;;;;;;58.10;26.93;;;;;;;-3.77;74.55;97935.47;1666743;85;21043;-76
2022/03/06 00:05:20;;;;;;;59.03;26.52;;;;;;;-3.80;74.12;97935.37;1662753;86;21039;-76
2022/03/06 00:07:48;;;;;;;58.50;27.25;;;;;;;-3.84;74.17;97925.36;1664163;85;21031;-76
2022/03/06 00:10:14;;;;;;;52.38;25.02;;;;;;;-3.83;74.20;97932.28;1664612;85;20966;-76
2022/03/06 00:12:41;;;;;;;55.60;26.17;;;;;;;-3.86;74.15;97933.52;1636354;86;21044;-76
2022/03/06 00:15:08;;;;;;;53.33;25.02;;;;;;;-3.88;74.23;97936.46;1664279;85;21570;-76
2022/03/06 00:17:34;;;;;;;54.95;27.15;;;;;;;-3.90;74.22;97939.44;1664558;85;20968;-76
2022/03/06 00:20:02;;;;;;;65.28;28.65;;;;;;;-3.90;75.07;97942.03;1664570;85;21022;-76
2022/03/06 00:22:29;;;;;;;67.78;28.50;;;;;;;-3.91;74.67;97941.14;1663460;85;20972;-75
2022/03/06 00:24:58;;;;;;;54.23;25.72;;;;;;;-3.88;74.74;97933.88;1664076;85;21051;-75
2022/03/06 00:27:24;;;;;;;53.10;26.45;;;;;;;-3.85;75.21;97943.89;1664436;85;20976;-75
2022/03/06 00:29:52;;;;;;;51.73;25.10;;;;;;;-3.80;74.96;97941.44;1664374;85;21475;-76
2022/03/06 00:32:19;;;;;;;52.90;25.00;;;;;;;-3.86;74.58;97931.78;1664595;85;20984;-76
2022/03/06 00:34:48;;;;;;;54.88;24.50;;;;;;;-3.89;74.57;97939.48;1665545;85;21015;-76
2022/03/06 00:37:16;;;;;;;52.65;23.67;;;;;;;-3.91;74.86;97929.48;1663346;86;21000;-76
2022/03/06 00:39:44;;;;;;;53.38;24.50;;;;;;;-3.89;74.84;97930.83;1663038;85;21456;-76
2022/03/06 00:42:11;;;;;;;56.90;24.05;;;;;;;-3.94;74.64;97928.54;1664549;85;21057;-75
2022/03/06 00:44:38;;;;;;;55.45;24.90;;;;;;;-3.99;74.70;97931.02;1662906;86;21059;-74
2022/03/06 00:47:05;;;;;;;47.30;23.75;;;;;;;-3.94;75.40;97940.19;1663856;86;21095;-75
2022/03/06 00:49:32;;;;;;;62.50;27.02;;;;;;;-3.90;75.24;97939.00;1663832;86;21035;-75
2022/03/06 00:51:59;;;;;;;59.00;25.65;;;;;;;-3.89;75.63;97932.12;1664375;86;21055;-75
2022/03/06 00:54:28;;;;;;;55.40;24.63;;;;;;;-3.87;75.74;97937.80;1665286;86;21005;-75
2022/03/06 00:56:54;;;;;;;50.98;24.60;;;;;;;-3.86;75.29;97938.25;1665018;86;21437;-75
2022/03/06 00:59:22;;;;;;;55.30;24.87;;;;;;;-3.87;74.99;97935.63;1665282;86;21408;-75
2022/03/06 01:01:49;;;;;;;49.85;24.60;;;;;;;-3.91;75.00;97940.28;1665235;86;21016;-75
2022/03/06 01:04:15;;;;;;;56.83;26.00;;;;;;;-3.96;75.16;97928.48;1698829;84;21055;-75
2022/03/06 01:06:42;;;;;;;50.60;25.37;;;;;;;-4.00;75.21;97936.59;1698738;84;21106;-75
2022/03/06 01:09:09;;;;;;;58.75;25.55;;;;;;;-4.05;75.25;97925.24;1698898;84;21040;-75
2022/03/06 01:11:36;;;;;;;55.48;24.75;;;;;;;-4.08;75.37;97925.58;1698671;84;21024;-75
2022/03/06 01:14:03;;;;;;;53.15;25.08;;;;;;;-4.07;75.61;97926.89;1698968;84;21110;-75
2022/03/06 01:16:30;;;;;;;55.85;25.50;;;;;;;-4.04;75.69;97927.39;1699065;84;20996;-75
2022/03/06 01:18:57;;;;;;;55.67;26.12;;;;;;;-4.00;76.83;97920.17;1698761;84;21000;-75
2022/03/06 01:21:24;;;;;;;54.75;25.37;;;;;;;-3.97;76.17;97921.56;1699060;84;20992;-75
2022/03/06 01:23:51;;;;;;;61.08;26.60;;;;;;;-4.02;76.00;97920.56;1697678;84;21020;-75
2022/03/06 01:26:19;;;;;;;57.30;24.60;;;;;;;-4.01;77.48;97922.31;1696186;84;21556;-75
2022/03/06 01:28:45;;;;;;;56.08;24.92;;;;;;;-4.00;76.29;97918.48;1692256;85;21446;-75
2022/03/06 01:31:12;;;;;;;57.20;26.40;;;;;;;-4.00;77.04;97920.17;1692180;85;21569;-76
2022/03/06 01:33:38;;;;;;;54.42;26.25;;;;;;;-3.99;76.41;97913.75;1692033;85;21017;-75
2022/03/06 01:36:06;;;;;;;52.85;25.80;;;;;;;-3.95;76.74;97912.11;1693770;85;20985;-75
2022/03/06 01:38:33;;;;;;;61.42;27.75;;;;;;;-3.89;76.66;97908.83;1693718;85;21008;-75
2022/03/06 01:40:59;;;;;;;55.48;26.62;;;;;;;-3.84;76.57;97905.94;1693549;85;21001;-76
2022/03/06 01:43:26;;;;;;;65.35;28.23;;;;;;;-3.85;76.69;97895.13;1693764;85;20996;-76
2022/03/06 01:45:53;;;;;;;58.48;28.02;;;;;;;-3.85;76.18;97905.05;1693857;85;21465;-76
2022/03/06 01:48:19;;;;;;;57.33;26.87;;;;;;;-3.82;76.55;97906.84;1693767;85;21021;-76
2022/03/06 01:50:46;;;;;;;59.50;28.17;;;;;;;-3.80;76.49;97905.19;1693887;85;21070;-75
2022/03/06 01:53:13;;;;;;;63.00;28.38;;;;;;;-3.73;76.47;97902.34;1693593;85;21895;-75
2022/03/06 01:55:40;;;;;;;66.25;28.30;;;;;;;-3.78;76.40;97888.39;1693816;85;21433;-75
2022/03/06 01:58:09;;;;;;;63.33;29.20;;;;;;;-3.77;76.58;97897.51;1693894;85;21116;-75
2022/03/06 02:00:41;;;;;;;56.88;27.00;;;;;;;-3.72;76.70;97896.31;1693667;85;21036;-75
2022/03/06 02:03:09;;;;;;;56.45;28.27;;;;;;;-3.65;76.69;97899.50;1692897;85;21008;-75
2022/03/06 02:05:38;;;;;;;62.58;28.70;;;;;;;-3.58;76.42;97888.88;1692855;85;21039;-75
2022/03/06 02:08:05;;;;;;;66.70;28.83;;;;;;;-3.53;76.87;97887.28;1692225;85;21032;-75
2022/03/06 02:10:33;;;;;;;60.88;28.75;;;;;;;-3.57;76.33;97895.84;1692473;85;21020;-75
2022/03/06 02:13:00;;;;;;;64.40;29.35;;;;;;;-3.58;76.30;97896.66;1667370;85;21004;-75
2022/03/06 02:15:27;;;;;;;61.30;29.10;;;;;;;-3.71;76.24;97903.23;1692152;85;21052;-75
2022/03/06 02:17:53;;;;;;;63.45;29.35;;;;;;;-3.72;76.46;97902.79;1692279;85;21005;-75
2022/03/06 02:20:26;;;;;;;66.00;27.90;;;;;;;-3.70;76.45;97901.10;1693326;85;21012;-75
2022/03/06 02:22:56;;;;;;;65.30;29.90;;;;;;;-3.67;76.91;97900.30;1693733;85;20997;-75
2022/03/06 02:25:29;;;;;;;61.10;29.37;;;;;;;-3.61;76.87;97901.34;1693078;85;21498;-75
2022/03/06 02:27:58;;;;;;;63.63;27.67;;;;;;;-3.58;76.52;97892.36;1703443;83;21026;-75
2022/03/06 02:30:29;;;;;;;65.25;30.27;;;;;;;-3.59;76.56;97901.39;1707087;84;21025;-75
2022/03/06 02:32:58;;;;;;;61.88;28.92;;;;;;;-3.53;76.48;97902.83;1707125;84;21003;-75
2022/03/06 02:35:26;;;;;;;63.75;29.80;;;;;;;-3.48;76.57;97899.92;1706981;84;21023;-76
2022/03/06 02:37:53;;;;;;;64.97;30.35;;;;;;;-3.47;76.43;97901.70;1673126;85;21017;-74
2022/03/06 02:40:22;;;;;;;60.38;27.55;;;;;;;-3.46;76.56;97891.80;1673170;86;21443;-74
2022/03/06 02:42:52;;;;;;;64.10;29.25;;;;;;;-3.47;76.32;97900.41;1672828;86;20990;-74
2022/03/06 02:45:25;;;;;;;62.88;29.72;;;;;;;-3.45;76.14;97901.31;1673549;86;21040;-75
2022/03/06 02:47:54;;;;;;;64.22;29.37;;;;;;;-3.45;76.15;97903.02;1673459;86;21536;-75
2022/03/06 02:50:28;;;;;;;65.83;28.73;;;;;;;-3.47;76.54;97904.70;1673285;86;21048;-75
2022/03/06 02:52:57;;;;;;;61.63;28.38;;;;;;;-3.48;76.04;97904.25;1669158;86;21048;-75
2022/03/06 02:55:24;;;;;;;61.95;27.80;;;;;;;-3.50;76.01;97902.91;1673175;84;20999;-86
2022/03/06 02:57:51;;;;;;;63.68;28.83;;;;;;;-3.55;76.05;97904.52;1648013;86;21065;-86
2022/03/06 03:00:20;;;;;;;63.25;28.30;;;;;;;-3.58;76.06;97908.31;1673195;86;21078;-86
2022/03/06 03:02:49;;;;;;;64.12;29.77;;;;;;;-3.59;76.17;97910.05;1673408;86;21018;-86
2022/03/06 03:05:17;;;;;;;67.80;29.02;;;;;;;-3.63;76.29;97909.91;1673241;86;21031;-86
2022/03/06 03:07:48;;;;;;;65.03;28.95;;;;;;;-3.60;76.32;97911.30;1673472;86;21048;-86
2022/03/06 03:10:18;;;;;;;61.35;27.80;;;;;;;-3.63;76.30;97915.98;1673434;86;21433;-85
2022/03/06 03:12:46;;;;;;;58.48;29.05;;;;;;;-3.56;76.45;97909.65;1673452;86;21020;-86
2022/03/06 03:15:14;;;;;;;58.73;26.40;;;;;;;-3.49;76.55;97910.28;1667487;86;21024;-86
2022/03/06 03:17:41;;;;;;;62.03;28.98;;;;;;;-3.46;76.50;97907.74;1673017;84;21041;-86
2022/03/06 03:20:09;;;;;;;59.05;28.40;;;;;;;-3.38;76.34;97911.41;1673069;86;21010;-86
2022/03/06 03:22:36;;;;;;;58.87;28.42;;;;;;;-3.36;76.26;97916.20;1673181;86;22096;-86
2022/03/06 03:25:05;;;;;;;63.63;29.30;;;;;;;-3.35;76.28;97914.09;1673003;86;21037;-87
2022/03/06 03:27:31;;;;;;;60.70;29.12;;;;;;;-3.35;76.17;97908.02;1673487;85;21478;-87
2022/03/06 03:29:58;;;;;;;64.50;29.20;;;;;;;-3.37;76.29;97909.27;1673383;86;21002;-87
2022/03/06 03:32:24;;;;;;;68.52;30.65;;;;;;;-3.34;76.30;97911.06;1673471;86;20978;-87
2022/03/06 03:34:51;;;;;;;67.82;30.10;;;;;;;-3.32;76.51;97911.55;1672846;86;21006;-87
2022/03/06 03:37:17;;;;;;;59.20;28.23;;;;;;;-3.27;76.67;97905.61;1673603;86;21033;-86
2022/03/06 03:39:44;;;;;;;58.25;28.32;;;;;;;-3.19;76.65;97910.57;1673106;86;21073;-86
2022/03/06 03:42:11;;;;;;;68.28;30.30;;;;;;;-3.12;76.46;97909.00;1673404;86;21101;-86
2022/03/06 03:44:37;;;;;;;61.80;29.15;;;;;;;-3.09;76.53;97902.16;1655943;86;21051;-86
2022/03/06 03:47:04;;;;;;;61.37;28.95;;;;;;;-3.04;76.27;97904.84;1642992;87;21059;-86
2022/03/06 03:49:31;;;;;;;60.95;29.20;;;;;;;-3.01;76.34;97906.23;1676009;86;21007;-88
2022/03/06 03:51:58;;;;;;;64.15;30.15;;;;;;;-3.02;76.26;97903.59;1649166;84;21403;-86
2022/03/06 03:54:25;;;;;;;64.42;29.72;;;;;;;-2.98;76.16;97906.31;1683895;84;20992;-86
2022/03/06 03:56:51;;;;;;;69.58;29.32;;;;;;;-3.00;76.17;97909.71;1707124;84;21035;-86
2022/03/06 03:59:18;;;;;;;66.77;28.45;;;;;;;-2.95;76.30;97907.66;1707065;84;21007;-87
2022/03/06 04:01:45;;;;;;;64.80;27.93;;;;;;;-2.95;76.07;97903.77;1705421;84;21015;-86
2022/03/06 04:04:11;;;;;;;60.12;29.10;;;;;;;-2.99;76.21;97904.97;1674791;86;21470;-87
2022/03/06 04:06:38;;;;;;;61.08;29.10;;;;;;;-3.01;76.33;97911.82;1674478;86;21005;-87
2022/03/06 04:09:04;;;;;;;58.28;28.10;;;;;;;-3.06;76.33;97906.10;1674718;86;21033;-87
2022/03/06 04:11:31;;;;;;;58.40;26.87;;;;;;;-3.13;76.23;97908.11;1674524;86;21083;-87
2022/03/06 04:13:58;;;;;;;59.50;28.40;;;;;;;-3.19;76.39;97907.54;1681002;84;21066;-87
2022/03/06 04:16:24;;;;;;;60.35;27.98;;;;;;;-3.24;76.50;97911.73;1707244;84;21012;-87
2022/03/06 04:18:51;;;;;;;60.20;28.42;;;;;;;-3.25;76.62;97902.63;1707264;84;21067;-87
2022/03/06 04:21:17;;;;;;;55.63;28.83;;;;;;;-3.27;76.50;97908.20;1707034;84;21011;-87
2022/03/06 04:23:45;;;;;;;69.80;31.17;;;;;;;-3.34;76.80;97911.06;1707284;84;21016;-87
2022/03/06 04:26:12;;;;;;;69.20;29.85;;;;;;;-3.35;76.87;97908.02;1696884;84;21032;-87
2022/03/06 04:28:38;;;;;;;63.42;31.17;;;;;;;-3.37;77.07;97905.83;1688000;85;21434;-87
2022/03/06 04:31:05;;;;;;;67.62;31.80;;;;;;;-3.39;77.16;97908.78;1692517;85;21013;-87
2022/03/06 04:33:32;;;;;;;62.00;28.85;;;;;;;-3.39;77.06;97910.08;1692603;85;21032;-87
2022/03/06 04:35:58;;;;;;;66.05;31.33;;;;;;;-3.43;76.92;97905.64;1692503;85;21004;-88
2022/03/06 04:38:25;;;;;;;68.42;32.33;;;;;;;-3.40;77.07;97909.62;1692852;85;21007;-88
2022/03/06 04:40:51;;;;;;;74.87;33.20;;;;;;;-3.39;76.95;97903.19;1694079;85;21007;-88
2022/03/06 04:43:18;;;;;;;72.58;32.28;;;;;;;-3.40;77.10;97905.33;1693789;85;21020;-88
2022/03/06 04:45:45;;;;;;;70.32;32.15;;;;;;;-3.38;77.08;97906.23;1693979;85;21422;-88
2022/03/06 04:48:11;;;;;;;64.58;31.95;;;;;;;-3.39;76.95;97906.19;1694004;85;21059;-87
2022/03/06 04:50:38;;;;;;;76.30;35.50;;;;;;;-3.39;77.08;97912.66;1693500;85;20997;-87
2022/03/06 04:53:04;;;;;;;62.17;32.45;;;;;;;-3.40;77.14;97914.80;1692475;85;21045;-87
2022/03/06 04:55:31;;;;;;;67.50;33.33;;;;;;;-3.42;77.15;97909.58;1692320;85;21024;-87
2022/03/06 04:57:58;;;;;;;78.60;33.05;;;;;;;-3.42;77.13;97916.47;1692362;85;21024;-88
2022/03/06 05:00:25;;;;;;;76.92;32.25;;;;;;;-3.40;77.42;97918.28;1692265;85;21008;-88
2022/03/06 05:02:52;;;;;;;62.88;31.30;;;;;;;-3.37;77.41;97918.78;1692385;85;21509;-89
2022/03/06 05:05:18;;;;;;;73.20;35.63;;;;;;;-3.33;77.17;97920.17;1692445;85;21083;-88
2022/03/06 05:07:45;;;;;;;70.08;32.00;;;;;;;-3.30;77.19;97918.08;1692320;85;21049;-88
2022/03/06 05:10:12;;;;;;;73.52;34.35;;;;;;;-3.29;77.13;97924.15;1693298;85;21033;-88
2022/03/06 05:12:41;;;;;;;74.70;33.67;;;;;;;-3.26;77.24;97927.69;1693817;85;21012;-89
2022/03/06 05:15:11;;;;;;;75.05;32.65;;;;;;;-3.22;77.18;97925.63;1693849;85;21004;-88
2022/03/06 05:17:40;;;;;;;71.35;32.90;;;;;;;-3.17;77.41;97923.13;1693672;85;20992;-88
2022/03/06 05:20:10;;;;;;;74.77;34.73;;;;;;;-3.11;77.01;97924.56;1693783;85;21078;-88
2022/03/06 05:22:39;;;;;;;81.67;34.18;;;;;;;-3.06;77.12;97933.33;1693828;85;21084;-88
2022/03/06 05:25:08;;;;;;;82.05;33.98;;;;;;;-2.98;77.11;97940.02;1693645;85;21035;-89
2022/03/06 05:27:36;;;;;;;83.33;34.27;;;;;;;-2.93;76.88;97930.63;1694933;83;21505;-88
2022/03/06 05:30:07;;;;;;;71.53;33.65;;;;;;;-2.87;77.01;97938.95;1699074;84;21477;-88
2022/03/06 05:32:34;;;;;;;72.45;34.48;;;;;;;-2.79;76.92;97933.94;1698909;84;21032;-88
2022/03/06 05:35:01;;;;;;;81.10;35.15;;;;;;;-2.76;76.90;97930.13;1699210;84;21419;-88
2022/03/06 05:37:29;;;;;;;81.40;36.00;;;;;;;-2.67;76.78;97933.34;1698930;84;21494;-87
2022/03/06 05:39:56;;;;;;;77.95;33.90;;;;;;;-2.60;76.78;97936.95;1699243;84;20990;-87
2022/03/06 05:42:22;;;;;;;68.67;32.35;;;;;;;-2.56;76.59;97938.36;1702343;83;21031;-88
2022/03/06 05:44:49;;;;;;;79.10;34.35;;;;;;;-2.53;76.71;97942.30;1713802;83;21601;-89
2022/03/06 05:47:15;;;;;;;79.60;35.10;;;;;;;-2.51;76.91;97946.23;1698053;84;20988;-88
2022/03/06 05:49:44;;;;;;;81.75;34.95;;;;;;;-2.43;76.67;97943.39;1699070;84;21031;-87
2022/03/06 05:52:11;;;;;;;71.62;33.40;;;;;;;-2.38;77.11;97949.97;1699093;84;20980;-87
2022/03/06 05:54:38;;;;;;;76.60;35.75;;;;;;;-2.32;76.75;97939.70;1699156;84;21063;-87
2022/03/06 05:57:05;;;;;;;73.65;35.43;;;;;;;-2.28;76.62;97945.86;1698491;84;21467;-87
2022/03/06 05:59:31;;;;;;;76.40;33.67;;;;;;;-2.19;76.66;97941.27;1697430;84;21047;-87
2022/03/06 06:01:58;;;;;;;74.05;34.10;;;;;;;-2.15;76.31;97949.58;1697664;84;21004;-87
2022/03/06 06:04:24;;;;;;;67.58;33.35;;;;;;;-2.09;76.39;97947.09;1697766;84;21008;-87
2022/03/06 06:06:51;;;;;;;74.45;33.70;;;;;;;-2.04;76.33;97954.56;1699501;83;21091;-87
2022/03/06 06:09:18;;;;;;;72.40;32.55;;;;;;;-1.97;76.32;97952.96;1721440;83;21028;-87
2022/03/06 06:11:44;;;;;;;75.55;31.48;;;;;;;-1.89;76.06;97952.70;1721557;83;21016;-87
2022/03/06 06:14:11;;;;;;;67.03;31.12;;;;;;;-1.82;76.10;97958.00;1721202;83;21596;-87
2022/03/06 06:16:38;;;;;;;70.87;31.45;;;;;;;-1.79;75.95;97948.98;1701106;83;21042;-86
2022/03/06 06:19:04;;;;;;;68.65;30.68;;;;;;;-1.77;75.65;97958.56;1697723;84;21016;-87
2022/03/06 06:21:31;;;;;;;55.50;28.45;;;;;;;-1.71;75.94;97953.02;1677568;84;21067;-87
2022/03/06 06:23:58;;;;;;;64.85;29.98;;;;;;;-1.69;75.78;97960.41;1697755;84;20988;-87
2022/03/06 06:26:24;;;;;;;59.35;27.77;;;;;;;-1.63;75.85;97951.02;1697747;84;21036;-87
2022/03/06 06:28:55;;;;;;;57.00;26.55;;;;;;;-1.53;75.78;97957.23;1696542;83;21059;-87
2022/03/06 06:31:24;;;;;;;53.80;26.12;;;;;;;-1.45;75.57;97954.80;1696132;85;21047;-88
2022/03/06 06:33:51;;;;;;;51.65;25.45;;;;;;;-1.41;75.89;97950.08;1696032;85;21024;-87
2022/03/06 06:36:18;;;;;;;52.93;25.95;;;;;;;-1.37;75.74;97964.03;1696137;85;21032;-87
2022/03/06 06:38:45;;;;;;;57.05;26.42;;;;;;;-1.42;75.60;97960.48;1696632;84;21028;-87
2022/03/06 06:41:13;;;;;;;53.33;25.20;;;;;;;-1.39;75.90;97960.10;1669760;86;21051;-87
2022/03/06 06:43:40;;;;;;;54.42;23.85;;;;;;;-1.32;75.74;97962.39;1669541;86;21040;-87
2022/03/06 06:46:06;;;;;;;59.98;25.20;;;;;;;-1.22;75.46;97955.61;1669608;86;21138;-88
2022/03/06 06:48:33;;;;;;;54.15;27.50;;;;;;;-1.12;75.22;97965.75;1669513;86;21020;-88
2022/03/06 06:50:59;;;;;;;55.90;25.60;;;;;;;-1.09;75.19;97960.58;1670909;84;21015;-88
2022/03/06 06:53:26;;;;;;;55.90;26.68;;;;;;;-1.04;75.23;97960.23;1697638;84;21425;-88
2022/03/06 06:55:52;;;;;;;59.67;26.93;;;;;;;-0.94;75.27;97956.06;1697462;84;20996;-88
2022/03/06 06:58:19;;;;;;;53.95;25.88;;;;;;;-0.88;74.97;97961.36;1697616;84;21000;-88
2022/03/06 07:00:45;;;;;;;62.43;27.17;;;;;;;-0.83;74.86;97964.05;1696527;84;20996;-88
2022/03/06 07:03:12;;;;;;;51.13;24.47;;;;;;;-0.76;74.95;97961.09;1695797;85;21047;-88
2022/03/06 07:05:39;;;;;;;47.23;25.20;;;;;;;-0.69;74.66;97969.04;1696163;85;21008;-89
2022/03/06 07:08:05;;;;;;;53.85;24.80;;;;;;;-0.58;74.28;97964.41;1695934;84;20981;-89
2022/03/06 07:10:32;;;;;;;51.68;25.32;;;;;;;-0.48;74.32;97963.69;1695902;85;21461;-88
2022/03/06 07:12:59;;;;;;;52.40;26.05;;;;;;;-0.36;74.10;97962.98;1695960;85;21056;-89
2022/03/06 07:15:28;;;;;;;49.27;25.15;;;;;;;-0.24;73.80;97966.19;1696070;85;20984;-88
2022/03/06 07:18:01;;;;;;;45.25;24.57;;;;;;;-0.13;73.83;97958.48;1695914;84;21016;-88
2022/03/06 07:20:26;;;;;;;54.03;26.85;;;;;;;-0.02;73.49;97962.53;1695579;85;21482;-88
2022/03/06 07:22:53;;;;;;;54.13;25.40;;;;;;;0.07;73.04;97954.83;1695936;85;21028;-88
2022/03/06 07:25:21;;;;;;;49.20;25.65;;;;;;;0.07;72.50;97961.34;1696087;85;21016;-89
2022/03/06 07:27:48;;;;;;;52.67;24.18;;;;;;;0.13;71.80;97954.05;1695703;85;21032;-87
2022/03/06 07:30:15;;;;;;;46.35;24.20;;;;;;;0.19;72.58;97958.43;1692395;84;21430;-89
2022/03/06 07:32:48;;;;;;;50.58;25.92;;;;;;;0.29;72.68;97961.58;1698869;84;21012;-89
2022/03/06 07:35:16;;;;;;;49.85;23.92;;;;;;;0.38;72.50;97959.52;1698896;84;21067;-88
2022/03/06 07:37:43;;;;;;;51.28;25.62;;;;;;;0.48;72.23;97959.17;1698693;84;21036;-88
2022/03/06 07:40:13;;;;;;;50.10;25.92;;;;;;;0.54;71.91;97960.98;1698734;84;21059;-88
2022/03/06 07:42:40;;;;;;;43.87;23.85;;;;;;;0.61;71.89;97959.75;1698976;84;21024;-88
2022/03/06 07:45:08;;;;;;;47.05;23.95;;;;;;;0.65;71.75;97952.41;1699108;84;21071;-88
2022/03/06 07:47:35;;;;;;;50.33;24.52;;;;;;;0.70;71.44;97948.52;1699005;84;21059;-88
2022/03/06 07:50:02;;;;;;;44.77;21.85;;;;;;;0.71;71.47;97943.74;1698523;84;21072;-87
2022/03/06 07:52:29;;;;;;;41.73;21.80;;;;;;;0.72;70.87;97942.02;1697441;84;21020;-86
2022/03/06 07:54:56;;;;;;;45.20;21.25;;;;;;;0.75;70.75;97947.28;1697524;84;21013;-86
2022/03/06 07:57:22;;;;;;;46.98;22.93;;;;;;;0.81;70.85;97939.50;1697918;84;21039;-87
2022/03/06 07:59:49;;;;;;;45.12;23.38;;;;;;;0.85;69.87;97933.45;1697428;84;21016;-86
2022/03/06 08:02:16;;;;;;;43.78;22.20;;;;;;;0.96;70.46;97933.55;1698532;84;20980;-86
2022/03/06 08:04:42;;;;;;;39.78;19.67;;;;;;;1.01;70.36;97938.37;1699289;84;21051;-86
2022/03/06 08:07:09;;;;;;;35.75;18.23;;;;;;;1.08;70.06;97934.03;1698962;84;21402;-87
2022/03/06 08:09:35;;;;;;;29.90;16.25;;;;;;;1.19;69.57;97927.59;1699165;84;21005;-86
2022/03/06 08:12:03;;;;;;;36.35;18.40;;;;;;;1.27;68.87;97926.34;1699143;84;21067;-86
2022/03/06 08:14:31;;;;;;;29.40;15.93;;;;;;;1.33;68.76;97925.10;1698289;84;20980;-86
2022/03/06 08:16:57;;;;;;;32.40;14.63;;;;;;;1.39;68.99;97913.80;1697651;84;21067;-86
2022/03/06 08:19:24;;;;;;;29.80;14.35;;;;;;;1.51;68.45;97920.83;1697513;84;20973;-87
2022/03/06 08:21:50;;;;;;;23.35;11.78;;;;;;;1.59;68.20;97916.53;1697706;84;21048;-86
2022/03/06 08:24:18;;;;;;;19.82;9.98;;;;;;;1.64;64.70;97918.73;1697650;84;21457;-86
2022/03/06 08:26:45;;;;;;;20.27;10.28;;;;;;;1.65;64.59;97913.05;1698176;84;21028;-86
2022/03/06 08:29:11;;;;;;;21.02;10.88;;;;;;;1.67;64.79;97911.34;1698637;84;21024;-87
2022/03/06 08:31:38;;;;;;;21.15;11.48;;;;;;;1.68;64.58;97913.09;1698774;84;21025;-86
2022/03/06 08:34:05;;;;;;;17.40;10.00;;;;;;;1.68;62.62;97906.55;1698731;84;21455;-85
2022/03/06 08:36:32;;;;;;;22.55;13.08;;;;;;;1.72;63.61;97904.40;1698847;84;21052;-85
2022/03/06 08:38:59;;;;;;;44.00;24.10;;;;;;;1.77;62.35;97901.37;1698012;84;21048;-85
2022/03/06 08:41:25;;;;;;;28.83;14.23;;;;;;;1.79;61.84;97903.55;1697509;84;21008;-85
2022/03/06 08:43:52;;;;;;;21.70;11.10;;;;;;;1.82;60.88;97902.27;1697636;84;21031;-85
2022/03/06 08:46:18;;;;;;;19.02;10.95;;;;;;;1.84;60.27;97895.74;1697594;84;21079;-85
2022/03/06 08:48:45;;;;;;;21.50;11.80;;;;;;;1.90;60.56;97897.06;1697932;84;21000;-86
2022/03/06 08:51:13;;;;;;;22.32;11.73;;;;;;;1.98;60.21;97903.62;1698732;84;21066;-87
2022/03/06 08:53:40;;;;;;;20.85;10.70;;;;;;;2.03;60.86;97901.89;1697798;84;21004;-86
2022/03/06 08:56:06;;;;;;;22.22;11.90;;;;;;;2.03;57.57;97903.66;1697624;84;21588;-86
2022/03/06 08:58:34;;;;;;;21.75;12.43;;;;;;;2.09;57.21;97908.89;1697689;84;21021;-87
2022/03/06 09:01:01;;;;;;;27.27;13.10;;;;;;;2.11;57.63;97905.41;1697384;84;21016;-86
2022/03/06 09:03:28;;;;;;;22.37;12.37;;;;;;;2.14;58.08;97903.66;1697571;84;21015;-86
2022/03/06 09:05:55;;;;;;;23.67;12.58;;;;;;;2.18;56.98;97903.69;1696939;84;21048;-86
2022/03/06 09:08:22;;;;;;;21.50;12.07;;;;;;;2.22;56.91;97897.61;1695940;84;21035;-86
2022/03/06 09:10:48;;;;;;;25.05;11.78;;;;;;;2.29;56.02;97891.07;1698086;84;21449;-86
2022/03/06 09:13:15;;;;;;;22.90;12.25;;;;;;;2.35;54.80;97892.38;1699149;84;21161;-87
2022/03/06 09:15:42;;;;;;;17.57;10.63;;;;;;;2.36;55.24;97890.20;1697047;84;21488;-87
2022/03/06 09:18:08;;;;;;;21.07;11.48;;;;;;;2.39;55.38;97886.29;1697273;84;21020;-87
2022/03/06 09:20:34;;;;;;;23.22;11.95;;;;;;;2.43;56.17;97885.44;1697770;84;21466;-86
2022/03/06 09:23:03;;;;;;;22.05;12.03;;;;;;;2.49;55.39;97890.66;1698122;84;21016;-87
2022/03/06 09:25:32;;;;;;;21.12;11.85;;;;;;;2.61;55.57;97883.27;1699095;84;21481;-85
2022/03/06 09:28:02;;;;;;;21.77;11.83;;;;;;;2.70;56.41;97887.62;1699187;84;20996;-86
2022/03/06 09:30:30;;;;;;;21.40;10.70;;;;;;;2.76;56.76;97881.52;1698951;84;21461;-86
2022/03/06 09:32:57;;;;;;;23.32;11.73;;;;;;;2.82;56.30;97876.28;1699105;84;21039;-85
2022/03/06 09:35:23;;;;;;;19.10;10.65;;;;;;;2.92;56.41;97866.69;1699088;84;21000;-83
2022/03/06 09:37:51;;;;;;;16.62;9.60;;;;;;;3.03;56.17;97871.89;1699036;84;21000;-87
2022/03/06 09:40:19;;;;;;;18.40;10.30;;;;;;;3.10;55.57;97871.45;1704264;83;21005;-82
2022/03/06 09:42:46;;;;;;;19.30;10.58;;;;;;;3.13;55.48;97867.11;1720025;83;21080;-81
2022/03/06 09:45:14;;;;;;;19.75;10.85;;;;;;;3.20;55.00;97860.53;1720740;83;21016;-81
2022/03/06 09:47:42;;;;;;;21.73;10.95;;;;;;;3.28;54.21;97865.33;1706270;83;21056;-82
2022/03/06 09:50:11;;;;;;;19.95;11.28;;;;;;;3.32;52.52;97863.56;1697423;84;21453;-82
2022/03/06 09:52:38;;;;;;;16.48;9.50;;;;;;;3.26;51.38;97860.09;1697494;84;21020;-80
2022/03/06 09:55:07;;;;;;;18.60;10.23;;;;;;;3.33;51.91;97861.38;1697581;84;21064;-79
2022/03/06 09:57:34;;;;;;;17.02;9.88;;;;;;;3.25;50.13;97857.47;1697548;84;21008;-82
2022/03/06 10:00:00;;;;;;;19.52;10.90;;;;;;;3.28;51.78;97853.55;1697748;84;21028;-82
2022/03/06 10:02:27;;;;;;;18.23;10.90;;;;;;;3.28;51.56;97849.61;1697756;84;21048;-83
2022/03/06 10:04:53;;;;;;;19.92;10.95;;;;;;;3.36;51.46;97849.13;1697624;84;21028;-80
2022/03/06 10:07:21;;;;;;;18.00;10.00;;;;;;;3.43;51.60;97844.75;1710114;83;20993;-80
2022/03/06 10:09:54;;;;;;;19.75;9.88;;;;;;;3.50;52.53;97836.44;1705337;83;21059;-80
2022/03/06 10:12:32;;;;;;;21.35;11.05;;;;;;;3.56;50.11;97839.91;1701104;83;21051;-82
2022/03/06 10:15:02;;;;;;;18.90;10.58;;;;;;;3.72;50.48;97827.16;1701048;83;21453;-80
2022/03/06 10:17:31;;;;;;;19.90;11.25;;;;;;;3.76;49.16;97823.22;1678175;84;21029;-83
2022/03/06 10:20:09;;;;;;;20.00;11.40;;;;;;;3.86;50.52;97829.27;1673197;85;21463;-85
2022/03/06 10:22:40;;;;;;;17.87;9.45;;;;;;;3.89;49.81;97817.47;1700901;83;21016;-86
2022/03/06 10:25:20;;;;;;;16.82;10.30;;;;;;;3.96;48.47;97817.00;1694749;83;21471;-84
2022/03/06 10:27:59;;;;;;;16.82;10.28;;;;;;;3.92;49.36;97811.34;1706377;83;21087;-83
2022/03/06 10:30:41;;;;;;;18.87;10.80;;;;;;;4.00;49.85;97800.38;1695374;83;21536;-86
2022/03/06 10:33:10;;;;;;;17.52;10.23;;;;;;;4.13;50.66;97795.03;1706245;83;21088;-83
2022/03/06 10:35:43;;;;;;;21.57;11.57;;;;;;;4.26;50.39;97791.44;1706015;83;21012;-84
2022/03/06 10:38:25;;;;;;;19.92;11.12;;;;;;;4.32;48.85;97788.77;1705813;84;21031;-87
2022/03/06 10:40:52;;;;;;;18.77;10.72;;;;;;;4.40;50.26;97781.29;1717376;83;21055;-83
2022/03/06 10:43:25;;;;;;;16.57;10.48;;;;;;;4.52;49.01;97777.23;1708437;84;21469;-84
2022/03/06 10:46:16;;;;;;;17.20;10.50;;;;;;;4.69;49.72;97780.17;1717804;83;21540;-85
2022/03/06 10:48:55;;;;;;;16.75;9.68;;;;;;;4.87;49.43;97782.59;1723735;82;21078;-85
2022/03/06 10:51:25;;;;;;;18.67;10.05;;;;;;;5.37;49.58;97770.68;1712460;83;21008;-87
2022/03/06 10:53:57;;;;;;;16.50;9.90;;;;;;;6.42;46.64;97770.09;1719051;83;21039;-86
2022/03/06 10:56:27;;;;;;;15.98;10.23;;;;;;;7.53;45.39;97755.77;1721900;83;21051;-84
2022/03/06 10:58:56;;;;;;;16.97;10.85;;;;;;;8.68;42.70;97751.80;1711932;83;20991;-86
2022/03/06 11:01:26;;;;;;;17.98;11.53;;;;;;;9.49;41.20;97738.16;1698800;84;21502;-86
2022/03/06 11:03:57;;;;;;;23.38;15.88;;;;;;;10.16;35.72;97729.06;1708738;83;20987;-83
2022/03/06 11:06:28;;;;;;;29.10;18.75;;;;;;;11.14;36.17;97730.23;1711733;84;21005;-85
2022/03/06 11:08:55;;;;;;;15.60;11.22;;;;;;;11.71;36.16;97725.05;1705442;83;21354;-82
2022/03/06 11:11:22;;;;;;;15.80;11.18;;;;;;;12.50;34.08;97723.24;1722048;83;21023;-83
2022/03/06 11:13:50;;;;;;;16.35;11.28;;;;;;;13.28;35.86;97710.60;1718116;82;21063;-82
2022/03/06 11:16:17;;;;;;;16.93;11.38;;;;;;;14.01;31.97;97713.52;1686178;83;21062;-84
2022/03/06 11:18:44;;;;;;;20.92;11.78;;;;;;;14.68;34.27;97712.92;1705533;84;21004;-88
2022/03/06 11:21:15;;;;;;;17.73;12.03;;;;;;;15.36;32.34;97695.23;1706061;83;21389;-85